Diadema Argentina, Argentina
Current Conditions -  °F | °C
As of 9:00 AM on Sunday 21 Dec 2014 (Local Time) from SAVC Reporting Station
Few Clouds Few Clouds  
Wind Chill: 50°   Ceiling: Unl
Heat Index: 50°   Visibility: 6mi
Dew Point: 37°   Wind: 7mph
Humidity: 62%   Direction: 180°S
Pressure: 30.03"   Gusts: NA
Location:  45.77°S, 67.67°W
Report Text: SAVC 211200Z 18006KT 060V270 9999 FEW035 FEW040CB 10/03 Q1017
Loading
Personal Weather Stations






























Interactive Weather Map New forecast layout! Learn more

10-Day Weather Forecast

Advertisements
Track Severe Weather on mobile